Washington, IA

7:06 AM CDT on April 25, 2015 (GMT -0500)
Washington Municipal | | Change Station
CLOSE
Current Station
Airport
Location: Washington,
Elevation: 755 ft
Nearby Weather Stations

Elev 755 ft 41.28 °N, 91.67 °W | Updated 11 minutes ago

Light Rain
Light Rain
45 °F
Feels Like 37 °F
N
18
Wind Variable Wind from ENE

Today
High -- | Low -- °F
--% Chance of Precip.
Yesterday
High -- | Low -- °F
Precip. -- in
6:12 AM 7:57 PM
Waxing Crescent, 45% visible
Pressure 29.62 in
Visibility 1.8 miles
Clouds Overcast 600 ft
Windchill 37 °F
Dew Point 45 °F
Humidity 100%
Rainfall 0.11 in
Snow Depth Not available.
UV 0 out of 12
Pollen 9.10 out of 12
Air Quality Not available.
Flu Activity Local Activity
METAR KAWG 251155Z AUTO 07016KT 1 3/4SM -RA OVC006 07/07 A2962 RMK AO2 P0003

More Conditions Fewer Conditions

Pressure 29.62 in
Visibility 1.8 miles
Clouds Overcast 600 ft
Windchill 37 °F
Dew Point 45 °F
Humidity 100%
Rainfall 0.11 in
Snow Depth Not available.
UV 0 out of 12
Pollen 9.10 out of 12
Air Quality Not available.
Flu Activity Local Activity
METAR KAWG 251155Z AUTO 07016KT 1 3/4SM -RA OVC006 07/07 A2962 RMK AO2 P0003

More Conditions Fewer Conditions

10-Day Weather Forecast

Almanac

Astronomy

Apr. 25, 2015 Rise Set
Actual Time
Civil Twilight
Nautical Twilight
Astronomical Twilight
Moon
Length of Visible Light
Length of Day
Tomorrow will be .
, % of the Moon is Illuminated

Today's Extremes

State Highs State Lows

Community

WunderPhotos

Upload Photos

1,816,643 photos uploaded!

WunderBlogs® & News

Nearby

Air Quality

  Air Quality AQ Index Pollutant
Not available.

Snow Depth

Station Depth Elevation

Earthquake Activity

City Distance Mag. Time & Date
Minimum magnitude displayed is 2.5.

Coastal Water Temperatures

Place Temperature

Stations

Nearby Weather Stations

Station Location Temp. Windchill Dew Point Humidity Wind Precip. Elev Updated Type